sensor_id;sensor_type;location;lat;lon;timestamp;pressure;altitude;pressure_sealevel;temperature;humidity
4199;BME280;2113;50.946;14.610;2023-03-13T00:01:38;96445.19;;;3.30;94.73
4199;BME280;2113;50.946;14.610;2023-03-13T00:04:07;96440.13;;;3.28;94.77
4199;BME280;2113;50.946;14.610;2023-03-13T00:06:37;96429.69;;;3.30;94.84
4199;BME280;2113;50.946;14.610;2023-03-13T00:09:09;96428.88;;;3.29;95.03
4199;BME280;2113;50.946;14.610;2023-03-13T00:11:38;96434.16;;;3.28;94.64
4199;BME280;2113;50.946;14.610;2023-03-13T00:14:07;96431.53;;;3.40;94.15
4199;BME280;2113;50.946;14.610;2023-03-13T00:16:36;96428.69;;;3.43;93.42
4199;BME280;2113;50.946;14.610;2023-03-13T00:19:06;96426.44;;;3.28;93.84
4199;BME280;2113;50.946;14.610;2023-03-13T00:21:35;96428.75;;;3.31;93.99
4199;BME280;2113;50.946;14.610;2023-03-13T00:24:05;96427.56;;;3.24;94.27
4199;BME280;2113;50.946;14.610;2023-03-13T00:26:35;96432.03;;;3.21;94.51
4199;BME280;2113;50.946;14.610;2023-03-13T00:29:03;96431.25;;;3.32;94.70
4199;BME280;2113;50.946;14.610;2023-03-13T00:31:31;96439.09;;;3.31;94.51
4199;BME280;2113;50.946;14.610;2023-03-13T00:34:01;96425.38;;;3.30;94.58
4199;BME280;2113;50.946;14.610;2023-03-13T00:36:30;96433.09;;;3.30;94.61
4199;BME280;2113;50.946;14.610;2023-03-13T00:39:01;96426.28;;;3.29;94.79
4199;BME280;2113;50.946;14.610;2023-03-13T00:41:31;96426.19;;;3.31;94.68
4199;BME280;2113;50.946;14.610;2023-03-13T00:44:01;96426.59;;;3.37;94.91
4199;BME280;2113;50.946;14.610;2023-03-13T00:46:30;96425.09;;;3.46;94.47
4199;BME280;2113;50.946;14.610;2023-03-13T00:48:58;96420.50;;;3.38;94.52
4199;BME280;2113;50.946;14.610;2023-03-13T00:51:27;96432.78;;;3.35;94.75
4199;BME280;2113;50.946;14.610;2023-03-13T00:53:57;96431.63;;;3.39;94.93
4199;BME280;2113;50.946;14.610;2023-03-13T00:56:27;96423.78;;;3.40;94.88
4199;BME280;2113;50.946;14.610;2023-03-13T00:58:55;96421.56;;;3.47;94.71
4199;BME280;2113;50.946;14.610;2023-03-13T01:01:27;96426.50;;;3.50;94.84
4199;BME280;2113;50.946;14.610;2023-03-13T01:03:58;96421.91;;;3.42;94.90
4199;BME280;2113;50.946;14.610;2023-03-13T01:06:30;96425.69;;;3.49;94.76
4199;BME280;2113;50.946;14.610;2023-03-13T01:08:59;96419.59;;;3.50;94.80
4199;BME280;2113;50.946;14.610;2023-03-13T01:11:29;96423.81;;;3.51;94.92
4199;BME280;2113;50.946;14.610;2023-03-13T01:14:00;96426.31;;;3.53;94.95
4199;BME280;2113;50.946;14.610;2023-03-13T01:16:32;96415.88;;;3.54;94.85
4199;BME280;2113;50.946;14.610;2023-03-13T01:19:02;96415.72;;;3.56;94.88
4199;BME280;2113;50.946;14.610;2023-03-13T01:21:31;96415.72;;;3.56;95.07
4199;BME280;2113;50.946;14.610;2023-03-13T01:23:59;96413.16;;;3.56;95.12
4199;BME280;2113;50.946;14.610;2023-03-13T01:26:28;96409.91;;;3.65;95.09
4199;BME280;2113;50.946;14.610;2023-03-13T01:28:56;96416.00;;;3.64;94.94
4199;BME280;2113;50.946;14.610;2023-03-13T01:31:26;96415.22;;;3.75;94.86
4199;BME280;2113;50.946;14.610;2023-03-13T01:33:58;96412.84;;;3.72;94.46
4199;BME280;2113;50.946;14.610;2023-03-13T01:36:27;96405.47;;;3.67;94.91
4199;BME280;2113;50.946;14.610;2023-03-13T01:38:57;96399.94;;;3.72;95.17
4199;BME280;2113;50.946;14.610;2023-03-13T01:41:28;96397.13;;;3.75;94.98
4199;BME280;2113;50.946;14.610;2023-03-13T01:43:56;96401.13;;;3.79;94.90
4199;BME280;2113;50.946;14.610;2023-03-13T01:46:30;96388.56;;;3.74;95.00
4199;BME280;2113;50.946;14.610;2023-03-13T01:49:09;96395.03;;;3.80;94.96
4199;BME280;2113;50.946;14.610;2023-03-13T01:52:07;96388.13;;;3.80;94.49
4199;BME280;2113;50.946;14.610;2023-03-13T01:54:46;96383.19;;;3.77;94.47
4199;BME280;2113;50.946;14.610;2023-03-13T01:57:20;96383.03;;;3.68;94.69
4199;BME280;2113;50.946;14.610;2023-03-13T01:59:53;96381.50;;;3.65;95.13
4199;BME280;2113;50.946;14.610;2023-03-13T02:02:24;96381.41;;;3.78;94.60
4199;BME280;2113;50.946;14.610;2023-03-13T02:04:57;96378.63;;;3.81;94.57
4199;BME280;2113;50.946;14.610;2023-03-13T02:07:28;96381.63;;;3.75;94.81
4199;BME280;2113;50.946;14.610;2023-03-13T02:10:00;96386.47;;;3.79;94.33
4199;BME280;2113;50.946;14.610;2023-03-13T02:12:30;96385.25;;;3.72;94.67
4199;BME280;2113;50.946;14.610;2023-03-13T02:15:03;96384.09;;;3.65;94.92
4199;BME280;2113;50.946;14.610;2023-03-13T02:17:33;96378.13;;;3.76;94.90
4199;BME280;2113;50.946;14.610;2023-03-13T02:20:04;96374.38;;;3.80;94.55
4199;BME280;2113;50.946;14.610;2023-03-13T02:22:42;96380.38;;;3.80;94.70
4199;BME280;2113;50.946;14.610;2023-03-13T02:25:28;96378.13;;;3.76;94.18
4199;BME280;2113;50.946;14.610;2023-03-13T02:28:00;96378.91;;;3.54;94.76
4199;BME280;2113;50.946;14.610;2023-03-13T02:30:33;96377.47;;;3.50;95.44
4199;BME280;2113;50.946;14.610;2023-03-13T02:33:02;96378.75;;;3.55;95.30
4199;BME280;2113;50.946;14.610;2023-03-13T02:35:34;96375.81;;;3.49;95.16
4199;BME280;2113;50.946;14.610;2023-03-13T02:38:10;96381.22;;;3.57;95.18
4199;BME280;2113;50.946;14.610;2023-03-13T02:40:44;96375.84;;;3.60;95.20
4199;BME280;2113;50.946;14.610;2023-03-13T02:43:17;96375.63;;;3.63;94.92
4199;BME280;2113;50.946;14.610;2023-03-13T02:46:04;96365.16;;;3.53;95.01
4199;BME280;2113;50.946;14.610;2023-03-13T02:48:36;96366.69;;;3.56;94.81
4199;BME280;2113;50.946;14.610;2023-03-13T02:51:09;96361.06;;;3.51;95.09
4199;BME280;2113;50.946;14.610;2023-03-13T02:53:40;96356.81;;;3.50;95.28
4199;BME280;2113;50.946;14.610;2023-03-13T02:56:13;96353.97;;;3.42;95.17
4199;BME280;2113;50.946;14.610;2023-03-13T02:58:42;96346.47;;;3.39;95.21
4199;BME280;2113;50.946;14.610;2023-03-13T03:01:19;96347.09;;;3.53;95.43
4199;BME280;2113;50.946;14.610;2023-03-13T03:03:47;96347.88;;;3.43;95.26
4199;BME280;2113;50.946;14.610;2023-03-13T03:06:15;96339.06;;;3.34;95.42
4199;BME280;2113;50.946;14.610;2023-03-13T03:08:45;96339.31;;;3.42;95.17
4199;BME280;2113;50.946;14.610;2023-03-13T03:11:15;96336.84;;;3.41;94.96
4199;BME280;2113;50.946;14.610;2023-03-13T03:13:48;96337.72;;;3.52;94.90
4199;BME280;2113;50.946;14.610;2023-03-13T03:16:16;96336.72;;;3.42;94.44
4199;BME280;2113;50.946;14.610;2023-03-13T03:18:45;96325.72;;;3.40;94.72
4199;BME280;2113;50.946;14.610;2023-03-13T03:21:14;96317.16;;;3.51;94.71
4199;BME280;2113;50.946;14.610;2023-03-13T03:23:42;96323.00;;;3.42;94.16
4199;BME280;2113;50.946;14.610;2023-03-13T03:26:10;96333.22;;;3.43;93.97
4199;BME280;2113;50.946;14.610;2023-03-13T03:28:40;96335.44;;;3.37;94.22
4199;BME280;2113;50.946;14.610;2023-03-13T03:31:13;96340.78;;;3.22;94.71
4199;BME280;2113;50.946;14.610;2023-03-13T03:33:43;96339.63;;;3.03;94.76
4199;BME280;2113;50.946;14.610;2023-03-13T03:36:16;96341.63;;;2.99;95.55
4199;BME280;2113;50.946;14.610;2023-03-13T03:38:45;96334.53;;;2.90;95.32
4199;BME280;2113;50.946;14.610;2023-03-13T03:41:17;96336.53;;;2.87;95.65
4199;BME280;2113;50.946;14.610;2023-03-13T03:43:47;96342.81;;;3.06;95.79
4199;BME280;2113;50.946;14.610;2023-03-13T03:46:19;96344.50;;;3.18;95.72
4199;BME280;2113;50.946;14.610;2023-03-13T03:48:48;96334.81;;;3.33;95.46
4199;BME280;2113;50.946;14.610;2023-03-13T03:51:16;96336.03;;;3.40;94.77
4199;BME280;2113;50.946;14.610;2023-03-13T03:53:46;96327.22;;;3.43;94.68
4199;BME280;2113;50.946;14.610;2023-03-13T03:56:14;96327.31;;;3.30;94.92
4199;BME280;2113;50.946;14.610;2023-03-13T03:58:49;96322.50;;;3.26;95.19
4199;BME280;2113;50.946;14.610;2023-03-13T04:01:26;96315.59;;;3.26;95.14
4199;BME280;2113;50.946;14.610;2023-03-13T04:03:54;96314.97;;;3.22;95.03
4199;BME280;2113;50.946;14.610;2023-03-13T04:06:22;96313.44;;;3.20;95.62
4199;BME280;2113;50.946;14.610;2023-03-13T04:08:51;96301.75;;;3.27;95.42
4199;BME280;2113;50.946;14.610;2023-03-13T04:11:22;96298.91;;;3.30;95.13
4199;BME280;2113;50.946;14.610;2023-03-13T04:13:55;96298.22;;;3.28;95.31
4199;BME280;2113;50.946;14.610;2023-03-13T04:16:24;96297.66;;;3.36;95.48
4199;BME280;2113;50.946;14.610;2023-03-13T04:18:54;96287.78;;;3.30;95.18
4199;BME280;2113;50.946;14.610;2023-03-13T04:21:24;96287.00;;;3.40;95.27
4199;BME280;2113;50.946;14.610;2023-03-13T04:23:58;96272.69;;;3.47;95.09
4199;BME280;2113;50.946;14.610;2023-03-13T04:26:26;96268.13;;;3.51;94.97
4199;BME280;2113;50.946;14.610;2023-03-13T04:28:58;96269.28;;;3.47;94.77
4199;BME280;2113;50.946;14.610;2023-03-13T04:31:40;96256.50;;;3.45;94.46
4199;BME280;2113;50.946;14.610;2023-03-13T04:34:27;96257.31;;;3.35;93.97
4199;BME280;2113;50.946;14.610;2023-03-13T04:37:18;96246.25;;;3.33;94.42
4199;BME280;2113;50.946;14.610;2023-03-13T04:40:10;96246.97;;;3.35;94.58
4199;BME280;2113;50.946;14.610;2023-03-13T04:42:48;96239.13;;;3.36;94.66
4199;BME280;2113;50.946;14.610;2023-03-13T04:45:42;96239.00;;;3.38;94.27
4199;BME280;2113;50.946;14.610;2023-03-13T04:48:21;96237.09;;;3.29;94.55
4199;BME280;2113;50.946;14.610;2023-03-13T04:51:00;96245.00;;;3.27;94.91
4199;BME280;2113;50.946;14.610;2023-03-13T04:53:40;96243.56;;;3.34;94.94
4199;BME280;2113;50.946;14.610;2023-03-13T04:56:31;96235.34;;;3.29;94.84
4199;BME280;2113;50.946;14.610;2023-03-13T04:59:29;96230.78;;;3.44;94.71
4199;BME280;2113;50.946;14.610;2023-03-13T05:02:19;96227.59;;;3.29;94.46
4199;BME280;2113;50.946;14.610;2023-03-13T05:05:03;96221.06;;;3.25;94.80
4199;BME280;2113;50.946;14.610;2023-03-13T05:08:01;96220.44;;;3.21;94.99
4199;BME280;2113;50.946;14.610;2023-03-13T05:10:50;96224.31;;;3.16;95.14
4199;BME280;2113;50.946;14.610;2023-03-13T05:13:44;96230.16;;;3.18;94.81
4199;BME280;2113;50.946;14.610;2023-03-13T05:16:33;96210.34;;;3.18;95.48
4199;BME280;2113;50.946;14.610;2023-03-13T05:19:25;96213.41;;;3.24;95.12
4199;BME280;2113;50.946;14.610;2023-03-13T05:22:12;96202.97;;;3.14;95.40
4199;BME280;2113;50.946;14.610;2023-03-13T05:24:59;96197.44;;;3.07;95.48
4199;BME280;2113;50.946;14.610;2023-03-13T05:27:46;96210.94;;;3.11;95.51
4199;BME280;2113;50.946;14.610;2023-03-13T05:30:30;96205.41;;;3.04;95.64
4199;BME280;2113;50.946;14.610;2023-03-13T05:33:15;96210.00;;;3.12;95.56
4199;BME280;2113;50.946;14.610;2023-03-13T05:35:56;96207.66;;;3.09;95.82
4199;BME280;2113;50.946;14.610;2023-03-13T05:38:41;96191.13;;;3.22;95.22
4199;BME280;2113;50.946;14.610;2023-03-13T05:41:17;96184.00;;;3.26;94.80
4199;BME280;2113;50.946;14.610;2023-03-13T05:44:11;96179.16;;;3.21;94.74
4199;BME280;2113;50.946;14.610;2023-03-13T05:46:51;96178.72;;;3.28;94.97
4199;BME280;2113;50.946;14.610;2023-03-13T05:49:28;96172.00;;;3.58;94.53
4199;BME280;2113;50.946;14.610;2023-03-13T05:52:01;96169.22;;;3.50;94.48
4199;BME280;2113;50.946;14.610;2023-03-13T05:54:50;96157.72;;;3.54;95.08
4199;BME280;2113;50.946;14.610;2023-03-13T05:57:18;96162.03;;;3.76;95.17
4199;BME280;2113;50.946;14.610;2023-03-13T05:59:53;96151.22;;;3.93;94.10
4199;BME280;2113;50.946;14.610;2023-03-13T06:02:43;96141.53;;;4.07;94.23
4199;BME280;2113;50.946;14.610;2023-03-13T06:05:17;96137.69;;;4.33;93.22
4199;BME280;2113;50.946;14.610;2023-03-13T06:07:48;96127.66;;;4.40;92.54
4199;BME280;2113;50.946;14.610;2023-03-13T06:10:16;96124.13;;;4.41;92.71
4199;BME280;2113;50.946;14.610;2023-03-13T06:12:51;96118.22;;;4.50;92.62
4199;BME280;2113;50.946;14.610;2023-03-13T06:15:21;96109.72;;;4.59;92.28
4199;BME280;2113;50.946;14.610;2023-03-13T06:17:55;96103.06;;;4.66;91.98
4199;BME280;2113;50.946;14.610;2023-03-13T06:20:23;96114.44;;;4.75;91.74
4199;BME280;2113;50.946;14.610;2023-03-13T06:22:53;96109.28;;;4.75;91.53
4199;BME280;2113;50.946;14.610;2023-03-13T06:25:21;96120.97;;;4.79;91.66
4199;BME280;2113;50.946;14.610;2023-03-13T06:27:49;96120.03;;;4.80;91.58
4199;BME280;2113;50.946;14.610;2023-03-13T06:30:17;96122.00;;;4.87;91.23
4199;BME280;2113;50.946;14.610;2023-03-13T06:32:45;96114.81;;;4.91;91.13
4199;BME280;2113;50.946;14.610;2023-03-13T06:35:16;96113.34;;;4.98;90.66
4199;BME280;2113;50.946;14.610;2023-03-13T06:37:44;96111.19;;;5.03;90.46
4199;BME280;2113;50.946;14.610;2023-03-13T06:40:14;96109.03;;;5.08;90.46
4199;BME280;2113;50.946;14.610;2023-03-13T06:42:42;96104.31;;;5.13;90.14
4199;BME280;2113;50.946;14.610;2023-03-13T06:45:11;96105.56;;;5.19;89.74
4199;BME280;2113;50.946;14.610;2023-03-13T06:47:39;96115.63;;;5.22;90.03
4199;BME280;2113;50.946;14.610;2023-03-13T06:50:08;96116.19;;;5.25;89.94
4199;BME280;2113;50.946;14.610;2023-03-13T06:52:36;96117.03;;;5.26;89.55
4199;BME280;2113;50.946;14.610;2023-03-13T06:55:10;96121.63;;;5.22;90.04
4199;BME280;2113;50.946;14.610;2023-03-13T06:57:40;96112.66;;;5.26;89.63
4199;BME280;2113;50.946;14.610;2023-03-13T07:00:10;96122.16;;;5.16;90.22
4199;BME280;2113;50.946;14.610;2023-03-13T07:02:38;96110.47;;;5.22;90.06
4199;BME280;2113;50.946;14.610;2023-03-13T07:05:07;96113.63;;;5.25;89.82
4199;BME280;2113;50.946;14.610;2023-03-13T07:07:35;96102.44;;;5.25;90.05
4199;BME280;2113;50.946;14.610;2023-03-13T07:10:05;96084.84;;;5.19;90.68
4199;BME280;2113;50.946;14.610;2023-03-13T07:12:33;96087.59;;;5.27;90.10
4199;BME280;2113;50.946;14.610;2023-03-13T07:15:04;96066.19;;;5.25;90.18
4199;BME280;2113;50.946;14.610;2023-03-13T07:17:33;96061.41;;;5.20;90.66
4199;BME280;2113;50.946;14.610;2023-03-13T07:20:02;96053.09;;;5.17;91.69
4199;BME280;2113;50.946;14.610;2023-03-13T07:22:32;96044.53;;;5.16;91.15
4199;BME280;2113;50.946;14.610;2023-03-13T07:25:00;96037.16;;;5.21;90.61
4199;BME280;2113;50.946;14.610;2023-03-13T07:27:28;96030.91;;;5.24;90.57
4199;BME280;2113;50.946;14.610;2023-03-13T07:29:56;96023.31;;;5.32;90.09
4199;BME280;2113;50.946;14.610;2023-03-13T07:32:30;96007.94;;;5.40;89.22
4199;BME280;2113;50.946;14.610;2023-03-13T07:34:58;96006.44;;;5.47;89.38
4199;BME280;2113;50.946;14.610;2023-03-13T07:37:29;96018.72;;;5.55;89.27
4199;BME280;2113;50.946;14.610;2023-03-13T07:39:57;96008.94;;;5.68;88.30
4199;BME280;2113;50.946;14.610;2023-03-13T07:42:25;96020.53;;;5.83;87.69
4199;BME280;2113;50.946;14.610;2023-03-13T07:44:53;96018.91;;;6.01;86.49
4199;BME280;2113;50.946;14.610;2023-03-13T07:47:21;96029.53;;;6.18;86.19
4199;BME280;2113;50.946;14.610;2023-03-13T07:49:51;96022.59;;;6.28;86.23
4199;BME280;2113;50.946;14.610;2023-03-13T07:52:20;96008.81;;;6.18;85.53
4199;BME280;2113;50.946;14.610;2023-03-13T07:54:49;96001.59;;;6.21;85.57
4199;BME280;2113;50.946;14.610;2023-03-13T07:57:17;96001.41;;;6.32;85.69
4199;BME280;2113;50.946;14.610;2023-03-13T07:59:45;96000.19;;;6.36;85.88
4199;BME280;2113;50.946;14.610;2023-03-13T08:02:13;95998.28;;;6.38;85.47
4199;BME280;2113;50.946;14.610;2023-03-13T08:04:42;95996.78;;;6.36;85.31
4199;BME280;2113;50.946;14.610;2023-03-13T08:07:13;95993.09;;;6.38;86.23
4199;BME280;2113;50.946;14.610;2023-03-13T08:09:41;95976.03;;;6.36;85.96
4199;BME280;2113;50.946;14.610;2023-03-13T08:12:09;95975.63;;;6.31;87.28
4199;BME280;2113;50.946;14.610;2023-03-13T08:14:38;95973.03;;;6.31;87.91
4199;BME280;2113;50.946;14.610;2023-03-13T08:17:06;95983.53;;;6.29;88.46
4199;BME280;2113;50.946;14.610;2023-03-13T08:19:35;95984.50;;;6.38;89.51
4199;BME280;2113;50.946;14.610;2023-03-13T08:22:04;95981.38;;;6.25;88.91
4199;BME280;2113;50.946;14.610;2023-03-13T08:24:34;95979.50;;;6.07;90.14
4199;BME280;2113;50.946;14.610;2023-03-13T08:27:03;95980.88;;;5.92;91.92
4199;BME280;2113;50.946;14.610;2023-03-13T08:29:31;95987.69;;;5.93;92.62
4199;BME280;2113;50.946;14.610;2023-03-13T08:31:59;95988.94;;;5.99;91.72
4199;BME280;2113;50.946;14.610;2023-03-13T08:34:28;95986.19;;;6.00;91.25
4199;BME280;2113;50.946;14.610;2023-03-13T08:36:57;95979.50;;;5.98;91.81
4199;BME280;2113;50.946;14.610;2023-03-13T08:39:25;95967.91;;;6.02;91.81
4199;BME280;2113;50.946;14.610;2023-03-13T08:41:54;95964.63;;;6.10;90.98
4199;BME280;2113;50.946;14.610;2023-03-13T08:44:22;95977.03;;;6.16;91.75
4199;BME280;2113;50.946;14.610;2023-03-13T08:46:51;95978.00;;;6.05;92.45
4199;BME280;2113;50.946;14.610;2023-03-13T08:49:19;95979.91;;;5.93;93.29
4199;BME280;2113;50.946;14.610;2023-03-13T08:51:47;95978.41;;;5.91;93.31
4199;BME280;2113;50.946;14.610;2023-03-13T08:54:15;95992.06;;;5.93;92.97
4199;BME280;2113;50.946;14.610;2023-03-13T08:56:43;95982.78;;;5.90;93.30
4199;BME280;2113;50.946;14.610;2023-03-13T08:59:14;95977.84;;;5.87;93.97
4199;BME280;2113;50.946;14.610;2023-03-13T09:01:43;95965.75;;;5.97;93.93
4199;BME280;2113;50.946;14.610;2023-03-13T09:04:12;95960.69;;;5.96;94.08
4199;BME280;2113;50.946;14.610;2023-03-13T09:06:40;95976.22;;;6.05;93.79
4199;BME280;2113;50.946;14.610;2023-03-13T09:09:09;95971.28;;;6.22;92.69
4199;BME280;2113;50.946;14.610;2023-03-13T09:11:38;95962.59;;;6.13;93.53
4199;BME280;2113;50.946;14.610;2023-03-13T09:14:07;95956.97;;;6.18;93.89
4199;BME280;2113;50.946;14.610;2023-03-13T09:16:38;95966.09;;;6.22;93.21
4199;BME280;2113;50.946;14.610;2023-03-13T09:19:06;95966.94;;;6.22;93.33
4199;BME280;2113;50.946;14.610;2023-03-13T09:21:35;95978.94;;;6.23;93.06
4199;BME280;2113;50.946;14.610;2023-03-13T09:24:03;95975.94;;;6.09;94.10
4199;BME280;2113;50.946;14.610;2023-03-13T09:26:32;95973.25;;;6.00;95.33
4199;BME280;2113;50.946;14.610;2023-03-13T09:29:00;95972.13;;;6.03;95.67
4199;BME280;2113;50.946;14.610;2023-03-13T09:31:30;95981.13;;;6.09;95.43
4199;BME280;2113;50.946;14.610;2023-03-13T09:34:00;95974.19;;;6.09;95.30
4199;BME280;2113;50.946;14.610;2023-03-13T09:36:29;95964.50;;;6.11;95.40
4199;BME280;2113;50.946;14.610;2023-03-13T09:38:59;95962.00;;;6.19;94.34
4199;BME280;2113;50.946;14.610;2023-03-13T09:41:33;95961.84;;;6.30;93.46
4199;BME280;2113;50.946;14.610;2023-03-13T09:44:06;95973.34;;;6.28;93.39
4199;BME280;2113;50.946;14.610;2023-03-13T09:46:41;95962.28;;;6.26;93.74
4199;BME280;2113;50.946;14.610;2023-03-13T09:49:21;95970.44;;;6.31;93.23
4199;BME280;2113;50.946;14.610;2023-03-13T09:51:55;95968.94;;;6.38;93.23
4199;BME280;2113;50.946;14.610;2023-03-13T09:54:30;95959.25;;;6.40;93.23
4199;BME280;2113;50.946;14.610;2023-03-13T09:57:05;95966.72;;;6.43;93.07
4199;BME280;2113;50.946;14.610;2023-03-13T09:59:42;95963.19;;;6.44;92.79
4199;BME280;2113;50.946;14.610;2023-03-13T10:02:30;95967.00;;;6.50;92.86
4199;BME280;2113;50.946;14.610;2023-03-13T10:05:16;95966.03;;;6.51;92.62
4199;BME280;2113;50.946;14.610;2023-03-13T10:07:47;95962.72;;;6.58;92.19
4199;BME280;2113;50.946;14.610;2023-03-13T10:10:18;95954.13;;;6.67;92.58
4199;BME280;2113;50.946;14.610;2023-03-13T10:12:52;95965.31;;;6.68;93.28
4199;BME280;2113;50.946;14.610;2023-03-13T10:15:31;95973.59;;;6.71;92.47
4199;BME280;2113;50.946;14.610;2023-03-13T10:18:10;95971.00;;;6.71;93.29
4199;BME280;2113;50.946;14.610;2023-03-13T10:20:42;95958.97;;;6.80;92.91
4199;BME280;2113;50.946;14.610;2023-03-13T10:23:15;95950.41;;;6.70;92.81
4199;BME280;2113;50.946;14.610;2023-03-13T10:25:46;95936.09;;;6.56;94.02
4199;BME280;2113;50.946;14.610;2023-03-13T10:28:16;95935.31;;;6.56;93.56
4199;BME280;2113;50.946;14.610;2023-03-13T10:30:47;95931.38;;;6.52;94.38
4199;BME280;2113;50.946;14.610;2023-03-13T10:33:21;95939.69;;;6.55;94.53
4199;BME280;2113;50.946;14.610;2023-03-13T10:36:09;95929.69;;;6.60;94.59
4199;BME280;2113;50.946;14.610;2023-03-13T10:38:46;95936.78;;;6.68;93.67
4199;BME280;2113;50.946;14.610;2023-03-13T10:41:26;95934.25;;;6.76;94.12
4199;BME280;2113;50.946;14.610;2023-03-13T10:43:59;95937.50;;;6.88;93.86
4199;BME280;2113;50.946;14.610;2023-03-13T10:46:29;95930.56;;;7.06;92.98
4199;BME280;2113;50.946;14.610;2023-03-13T10:49:00;95928.66;;;7.08;92.73
4199;BME280;2113;50.946;14.610;2023-03-13T10:51:35;95914.63;;;7.19;92.46
4199;BME280;2113;50.946;14.610;2023-03-13T10:54:15;95926.59;;;7.29;91.92
4199;BME280;2113;50.946;14.610;2023-03-13T10:56:43;95915.78;;;7.34;91.70
4199;BME280;2113;50.946;14.610;2023-03-13T10:59:21;95880.66;;;7.30;91.75
4199;BME280;2113;50.946;14.610;2023-03-13T11:01:50;95918.13;;;7.27;92.93
4199;BME280;2113;50.946;14.610;2023-03-13T11:04:28;95920.00;;;7.35;91.16
4199;BME280;2113;50.946;14.610;2023-03-13T11:07:01;95908.00;;;7.52;91.00
4199;BME280;2113;50.946;14.610;2023-03-13T11:09:30;95899.16;;;7.62;91.39
4199;BME280;2113;50.946;14.610;2023-03-13T11:12:03;95887.81;;;7.89;89.73
4199;BME280;2113;50.946;14.610;2023-03-13T11:14:32;95882.81;;;8.21;88.20
4199;BME280;2113;50.946;14.610;2023-03-13T11:17:04;95882.53;;;8.25;88.39
4199;BME280;2113;50.946;14.610;2023-03-13T11:19:49;95883.16;;;8.18;88.23
4199;BME280;2113;50.946;14.610;2023-03-13T11:22:29;95869.53;;;8.25;88.59
4199;BME280;2113;50.946;14.610;2023-03-13T11:25:09;95855.75;;;8.58;87.76
4199;BME280;2113;50.946;14.610;2023-03-13T11:27:44;95852.66;;;8.63;87.67
4199;BME280;2113;50.946;14.610;2023-03-13T11:30:21;95842.28;;;8.71;88.20
4199;BME280;2113;50.946;14.610;2023-03-13T11:32:55;95852.25;;;8.83;85.95
4199;BME280;2113;50.946;14.610;2023-03-13T11:35:36;95851.97;;;8.95;86.35
4199;BME280;2113;50.946;14.610;2023-03-13T11:38:15;95861.88;;;8.91;86.36
4199;BME280;2113;50.946;14.610;2023-03-13T11:40:51;95866.41;;;8.89;87.12
4199;BME280;2113;50.946;14.610;2023-03-13T11:43:38;95862.44;;;9.27;85.47
4199;BME280;2113;50.946;14.610;2023-03-13T11:46:32;95857.25;;;9.43;84.26
4199;BME280;2113;50.946;14.610;2023-03-13T11:49:25;95858.06;;;9.36;84.89
4199;BME280;2113;50.946;14.610;2023-03-13T11:52:17;95858.19;;;9.18;86.11
4199;BME280;2113;50.946;14.610;2023-03-13T11:55:08;95864.91;;;9.29;85.45
4199;BME280;2113;50.946;14.610;2023-03-13T11:57:47;95862.56;;;9.01;85.33
4199;BME280;2113;50.946;14.610;2023-03-13T12:00:29;95855.84;;;8.90;86.38
4199;BME280;2113;50.946;14.610;2023-03-13T12:03:01;95858.94;;;8.86;85.88
4199;BME280;2113;50.946;14.610;2023-03-13T12:05:37;95863.94;;;8.71;85.90
4199;BME280;2113;50.946;14.610;2023-03-13T12:08:11;95858.28;;;8.84;87.64
4199;BME280;2113;50.946;14.610;2023-03-13T12:10:47;95851.00;;;9.04;86.53
4199;BME280;2113;50.946;14.610;2023-03-13T12:13:22;95840.72;;;8.86;86.59
4199;BME280;2113;50.946;14.610;2023-03-13T12:15:58;95835.97;;;8.89;85.87
4199;BME280;2113;50.946;14.610;2023-03-13T12:18:30;95831.13;;;8.86;86.50
4199;BME280;2113;50.946;14.610;2023-03-13T12:21:04;95827.66;;;8.70;87.25
4199;BME280;2113;50.946;14.610;2023-03-13T12:23:41;95826.47;;;8.56;87.79
4199;BME280;2113;50.946;14.610;2023-03-13T12:26:16;95835.25;;;8.63;87.81
4199;BME280;2113;50.946;14.610;2023-03-13T12:28:51;95839.47;;;8.56;87.48
4199;BME280;2113;50.946;14.610;2023-03-13T12:31:27;95837.19;;;8.61;87.09
4199;BME280;2113;50.946;14.610;2023-03-13T12:34:05;95833.41;;;8.47;87.85
4199;BME280;2113;50.946;14.610;2023-03-13T12:36:39;95831.81;;;8.54;88.03
4199;BME280;2113;50.946;14.610;2023-03-13T12:39:17;95826.38;;;8.40;88.84
4199;BME280;2113;50.946;14.610;2023-03-13T12:42:05;95822.38;;;8.53;88.39
4199;BME280;2113;50.946;14.610;2023-03-13T12:44:34;95813.97;;;8.60;87.83
4199;BME280;2113;50.946;14.610;2023-03-13T12:47:07;95813.66;;;8.79;86.92
4199;BME280;2113;50.946;14.610;2023-03-13T12:50:03;95806.72;;;8.87;86.75
4199;BME280;2113;50.946;14.610;2023-03-13T12:52:49;95805.09;;;9.03;85.33
4199;BME280;2113;50.946;14.610;2023-03-13T12:58:43;95800.38;;;9.06;85.86
4199;BME280;2113;50.946;14.610;2023-03-13T13:01:20;95806.72;;;9.04;86.26
4199;BME280;2113;50.946;14.610;2023-03-13T13:03:55;95804.28;;;9.02;86.04
4199;BME280;2113;50.946;14.610;2023-03-13T13:06:27;95806.56;;;9.05;85.81
4199;BME280;2113;50.946;14.610;2023-03-13T13:09:19;95809.50;;;9.10;85.33
4199;BME280;2113;50.946;14.610;2023-03-13T13:11:50;95807.38;;;9.06;84.64
4199;BME280;2113;50.946;14.610;2023-03-13T13:17:50;95831.00;;;9.12;85.52
4199;BME280;2113;50.946;14.610;2023-03-13T13:20:30;95822.06;;;9.15;86.26
4199;BME280;2113;50.946;14.610;2023-03-13T13:23:33;95809.72;;;9.41;84.72
4199;BME280;2113;50.946;14.610;2023-03-13T13:32:40;95805.22;;;9.98;82.98
4199;BME280;2113;50.946;14.610;2023-03-13T13:35:29;95800.00;;;10.23;82.07
4199;BME280;2113;50.946;14.610;2023-03-13T13:38:21;95797.41;;;10.54;79.73
4199;BME280;2113;50.946;14.610;2023-03-13T13:41:00;95786.63;;;10.57;80.75
4199;BME280;2113;50.946;14.610;2023-03-13T13:43:30;95794.63;;;10.63;79.68
4199;BME280;2113;50.946;14.610;2023-03-13T13:46:02;95780.63;;;10.87;78.76
4199;BME280;2113;50.946;14.610;2023-03-13T13:48:35;95772.88;;;10.71;80.12
4199;BME280;2113;50.946;14.610;2023-03-13T13:51:23;95789.50;;;10.70;79.62
4199;BME280;2113;50.946;14.610;2023-03-13T13:53:54;95784.25;;;10.78;80.16
4199;BME280;2113;50.946;14.610;2023-03-13T13:56:44;95775.75;;;11.30;80.50
4199;BME280;2113;50.946;14.610;2023-03-13T13:59:24;95765.56;;;11.58;76.95
4199;BME280;2113;50.946;14.610;2023-03-13T14:02:20;95763.84;;;11.88;75.97
4199;BME280;2113;50.946;14.610;2023-03-13T14:05:00;95752.84;;;11.69;78.47
4199;BME280;2113;50.946;14.610;2023-03-13T14:07:46;95755.53;;;11.84;75.49
4199;BME280;2113;50.946;14.610;2023-03-13T14:10:30;95748.56;;;11.77;78.41
4199;BME280;2113;50.946;14.610;2023-03-13T14:13:08;95747.59;;;12.22;78.13